sensor_id;sensor_type;location;lat;lon;timestamp;temperature;humidity
152;DHT22;68;48.792;9.164;2023-09-07T00:01:48;17.90;91.10
152;DHT22;68;48.792;9.164;2023-09-07T00:04:18;17.90;91.00
152;DHT22;68;48.792;9.164;2023-09-07T00:06:45;17.80;91.20
152;DHT22;68;48.792;9.164;2023-09-07T00:09:11;17.80;90.70
152;DHT22;68;48.792;9.164;2023-09-07T00:11:39;17.80;90.80
152;DHT22;68;48.792;9.164;2023-09-07T00:14:05;17.70;90.90
152;DHT22;68;48.792;9.164;2023-09-07T00:16:34;17.70;91.00
152;DHT22;68;48.792;9.164;2023-09-07T00:19:03;17.70;91.50
152;DHT22;68;48.792;9.164;2023-09-07T00:21:30;17.70;91.10
152;DHT22;68;48.792;9.164;2023-09-07T00:23:57;17.70;91.70
152;DHT22;68;48.792;9.164;2023-09-07T00:26:24;17.60;91.50
152;DHT22;68;48.792;9.164;2023-09-07T00:28:51;17.60;91.50
152;DHT22;68;48.792;9.164;2023-09-07T00:31:17;17.70;91.70
152;DHT22;68;48.792;9.164;2023-09-07T00:33:45;17.70;91.40
152;DHT22;68;48.792;9.164;2023-09-07T00:36:12;17.70;91.60
152;DHT22;68;48.792;9.164;2023-09-07T00:38:39;17.80;91.90
152;DHT22;68;48.792;9.164;2023-09-07T00:41:07;17.70;91.60
152;DHT22;68;48.792;9.164;2023-09-07T00:43:33;17.60;91.60
152;DHT22;68;48.792;9.164;2023-09-07T00:46:00;17.50;91.70
152;DHT22;68;48.792;9.164;2023-09-07T00:48:27;17.50;92.20
152;DHT22;68;48.792;9.164;2023-09-07T00:50:55;17.70;92.30
152;DHT22;68;48.792;9.164;2023-09-07T00:53:22;17.80;91.80
152;DHT22;68;48.792;9.164;2023-09-07T00:55:50;17.70;92.20
152;DHT22;68;48.792;9.164;2023-09-07T00:58:17;17.50;92.50
152;DHT22;68;48.792;9.164;2023-09-07T01:00:44;17.40;92.70
152;DHT22;68;48.792;9.164;2023-09-07T01:03:10;17.40;93.00
152;DHT22;68;48.792;9.164;2023-09-07T01:05:43;17.30;93.20
152;DHT22;68;48.792;9.164;2023-09-07T01:08:21;17.30;93.30
152;DHT22;68;48.792;9.164;2023-09-07T01:10:49;17.20;93.20
152;DHT22;68;48.792;9.164;2023-09-07T01:13:17;17.20;93.40
152;DHT22;68;48.792;9.164;2023-09-07T01:15:44;17.10;93.40
152;DHT22;68;48.792;9.164;2023-09-07T01:18:11;17.10;93.50
152;DHT22;68;48.792;9.164;2023-09-07T01:20:40;17.10;93.60
152;DHT22;68;48.792;9.164;2023-09-07T01:23:08;17.20;93.60
152;DHT22;68;48.792;9.164;2023-09-07T01:25:36;17.30;93.50
152;DHT22;68;48.792;9.164;2023-09-07T01:28:03;17.30;93.40
152;DHT22;68;48.792;9.164;2023-09-07T01:30:30;17.20;93.50
152;DHT22;68;48.792;9.164;2023-09-07T01:32:57;17.20;93.60
152;DHT22;68;48.792;9.164;2023-09-07T01:35:25;17.10;93.60
152;DHT22;68;48.792;9.164;2023-09-07T01:37:52;17.00;93.50
152;DHT22;68;48.792;9.164;2023-09-07T01:40:20;17.00;93.60
152;DHT22;68;48.792;9.164;2023-09-07T01:42:47;16.90;93.50
152;DHT22;68;48.792;9.164;2023-09-07T01:45:13;16.90;93.50
152;DHT22;68;48.792;9.164;2023-09-07T01:47:40;16.80;93.50
152;DHT22;68;48.792;9.164;2023-09-07T01:50:07;16.70;93.30
152;DHT22;68;48.792;9.164;2023-09-07T01:52:34;16.70;93.10
152;DHT22;68;48.792;9.164;2023-09-07T01:55:01;16.70;93.30
152;DHT22;68;48.792;9.164;2023-09-07T01:57:29;16.70;92.90
152;DHT22;68;48.792;9.164;2023-09-07T01:59:56;16.70;93.10
152;DHT22;68;48.792;9.164;2023-09-07T02:02:22;16.60;93.30
152;DHT22;68;48.792;9.164;2023-09-07T02:04:49;16.60;92.80
152;DHT22;68;48.792;9.164;2023-09-07T02:07:16;16.50;92.70
152;DHT22;68;48.792;9.164;2023-09-07T02:09:42;16.50;92.40
152;DHT22;68;48.792;9.164;2023-09-07T02:12:09;16.50;92.90
152;DHT22;68;48.792;9.164;2023-09-07T02:14:38;16.50;92.70
152;DHT22;68;48.792;9.164;2023-09-07T02:17:05;16.40;92.80
152;DHT22;68;48.792;9.164;2023-09-07T02:19:32;16.40;92.30
152;DHT22;68;48.792;9.164;2023-09-07T02:21:58;16.40;92.40
152;DHT22;68;48.792;9.164;2023-09-07T02:24:25;16.40;91.20
152;DHT22;68;48.792;9.164;2023-09-07T02:26:52;16.40;91.70
152;DHT22;68;48.792;9.164;2023-09-07T02:29:18;16.30;92.20
152;DHT22;68;48.792;9.164;2023-09-07T02:31:47;16.30;91.40
152;DHT22;68;48.792;9.164;2023-09-07T02:34:13;16.20;91.20
152;DHT22;68;48.792;9.164;2023-09-07T02:36:40;16.20;91.20
152;DHT22;68;48.792;9.164;2023-09-07T02:39:07;16.20;91.10
152;DHT22;68;48.792;9.164;2023-09-07T02:41:34;16.20;91.50
152;DHT22;68;48.792;9.164;2023-09-07T02:44:01;16.20;91.10
152;DHT22;68;48.792;9.164;2023-09-07T02:46:28;16.20;91.10
152;DHT22;68;48.792;9.164;2023-09-07T02:48:56;16.20;90.60
152;DHT22;68;48.792;9.164;2023-09-07T02:51:23;16.20;90.50
152;DHT22;68;48.792;9.164;2023-09-07T02:53:50;16.20;90.40
152;DHT22;68;48.792;9.164;2023-09-07T02:56:17;16.20;90.50
152;DHT22;68;48.792;9.164;2023-09-07T02:58:44;16.10;90.10
152;DHT22;68;48.792;9.164;2023-09-07T03:01:11;16.10;90.00
152;DHT22;68;48.792;9.164;2023-09-07T03:03:38;16.00;89.40
152;DHT22;68;48.792;9.164;2023-09-07T03:06:10;16.00;88.60
152;DHT22;68;48.792;9.164;2023-09-07T03:08:37;16.00;88.60
152;DHT22;68;48.792;9.164;2023-09-07T03:11:04;16.00;88.90
152;DHT22;68;48.792;9.164;2023-09-07T03:13:31;16.00;87.30
152;DHT22;68;48.792;9.164;2023-09-07T03:15:58;15.90;87.90
152;DHT22;68;48.792;9.164;2023-09-07T03:18:25;15.90;88.60
152;DHT22;68;48.792;9.164;2023-09-07T03:20:53;15.80;88.10
152;DHT22;68;48.792;9.164;2023-09-07T03:23:21;15.80;87.50
152;DHT22;68;48.792;9.164;2023-09-07T03:25:48;15.80;87.70
152;DHT22;68;48.792;9.164;2023-09-07T03:28:15;15.70;85.90
152;DHT22;68;48.792;9.164;2023-09-07T03:30:42;15.70;85.50
152;DHT22;68;48.792;9.164;2023-09-07T03:33:09;15.70;85.20
152;DHT22;68;48.792;9.164;2023-09-07T03:35:35;15.70;83.60
152;DHT22;68;48.792;9.164;2023-09-07T03:38:03;15.70;84.40
152;DHT22;68;48.792;9.164;2023-09-07T03:40:31;15.70;85.00
152;DHT22;68;48.792;9.164;2023-09-07T03:42:58;15.70;84.70
152;DHT22;68;48.792;9.164;2023-09-07T03:45:25;15.60;84.40
152;DHT22;68;48.792;9.164;2023-09-07T03:47:52;15.60;84.40
152;DHT22;68;48.792;9.164;2023-09-07T03:50:18;15.60;84.40
152;DHT22;68;48.792;9.164;2023-09-07T03:52:45;15.60;84.00
152;DHT22;68;48.792;9.164;2023-09-07T03:55:12;15.60;83.90
152;DHT22;68;48.792;9.164;2023-09-07T03:57:40;15.50;82.80
152;DHT22;68;48.792;9.164;2023-09-07T04:00:08;15.50;83.00
152;DHT22;68;48.792;9.164;2023-09-07T04:02:35;15.50;83.40
152;DHT22;68;48.792;9.164;2023-09-07T04:05:01;15.50;83.60
152;DHT22;68;48.792;9.164;2023-09-07T04:07:30;15.40;83.60
152;DHT22;68;48.792;9.164;2023-09-07T04:09:57;15.40;82.10
152;DHT22;68;48.792;9.164;2023-09-07T04:12:24;15.30;81.70
152;DHT22;68;48.792;9.164;2023-09-07T04:14:52;15.30;80.70
152;DHT22;68;48.792;9.164;2023-09-07T04:17:19;15.30;79.90
152;DHT22;68;48.792;9.164;2023-09-07T04:19:46;15.30;81.20
152;DHT22;68;48.792;9.164;2023-09-07T04:22:13;15.20;80.20
152;DHT22;68;48.792;9.164;2023-09-07T04:24:40;15.20;80.00
152;DHT22;68;48.792;9.164;2023-09-07T04:27:06;15.20;79.60
152;DHT22;68;48.792;9.164;2023-09-07T04:29:33;15.20;78.70
152;DHT22;68;48.792;9.164;2023-09-07T04:32:01;15.20;79.40
152;DHT22;68;48.792;9.164;2023-09-07T04:34:28;15.20;79.90
152;DHT22;68;48.792;9.164;2023-09-07T04:36:54;15.10;79.20
152;DHT22;68;48.792;9.164;2023-09-07T04:39:21;15.10;79.00
152;DHT22;68;48.792;9.164;2023-09-07T04:41:48;15.00;78.60
152;DHT22;68;48.792;9.164;2023-09-07T04:44:15;15.00;77.50
152;DHT22;68;48.792;9.164;2023-09-07T04:46:41;15.00;77.20
152;DHT22;68;48.792;9.164;2023-09-07T04:49:09;15.00;77.70
152;DHT22;68;48.792;9.164;2023-09-07T04:51:36;15.00;76.90
152;DHT22;68;48.792;9.164;2023-09-07T04:54:03;15.00;76.70
152;DHT22;68;48.792;9.164;2023-09-07T04:56:30;15.00;77.50
152;DHT22;68;48.792;9.164;2023-09-07T04:58:56;15.00;77.00
152;DHT22;68;48.792;9.164;2023-09-07T05:01:23;15.00;77.40
152;DHT22;68;48.792;9.164;2023-09-07T05:03:50;15.00;77.00
152;DHT22;68;48.792;9.164;2023-09-07T05:06:18;15.00;75.90
152;DHT22;68;48.792;9.164;2023-09-07T05:08:47;15.00;77.50
152;DHT22;68;48.792;9.164;2023-09-07T05:11:13;15.00;78.10
152;DHT22;68;48.792;9.164;2023-09-07T05:13:40;15.30;78.30
152;DHT22;68;48.792;9.164;2023-09-07T05:16:07;15.80;83.60
152;DHT22;68;48.792;9.164;2023-09-07T05:18:34;16.30;89.40
152;DHT22;68;48.792;9.164;2023-09-07T05:21:01;16.60;92.80
152;DHT22;68;48.792;9.164;2023-09-07T05:23:29;16.80;93.80
152;DHT22;68;48.792;9.164;2023-09-07T05:25:56;17.00;94.00
152;DHT22;68;48.792;9.164;2023-09-07T05:28:23;17.10;94.00
152;DHT22;68;48.792;9.164;2023-09-07T05:30:50;17.20;93.90
152;DHT22;68;48.792;9.164;2023-09-07T05:33:17;17.20;93.90
152;DHT22;68;48.792;9.164;2023-09-07T05:35:44;17.20;93.80
152;DHT22;68;48.792;9.164;2023-09-07T05:38:12;17.20;93.80
152;DHT22;68;48.792;9.164;2023-09-07T05:40:42;16.90;93.80
152;DHT22;68;48.792;9.164;2023-09-07T05:43:09;17.00;94.00
152;DHT22;68;48.792;9.164;2023-09-07T05:45:38;17.00;93.90
152;DHT22;68;48.792;9.164;2023-09-07T05:48:05;17.20;93.90
152;DHT22;68;48.792;9.164;2023-09-07T05:50:35;17.30;93.80
152;DHT22;68;48.792;9.164;2023-09-07T05:53:02;17.10;93.70
152;DHT22;68;48.792;9.164;2023-09-07T05:55:29;16.80;93.80
152;DHT22;68;48.792;9.164;2023-09-07T05:57:58;16.90;94.00
152;DHT22;68;48.792;9.164;2023-09-07T06:00:25;17.10;93.90
152;DHT22;68;48.792;9.164;2023-09-07T06:02:52;17.20;93.90
152;DHT22;68;48.792;9.164;2023-09-07T06:05:19;17.10;93.80
152;DHT22;68;48.792;9.164;2023-09-07T06:07:46;16.80;93.70
152;DHT22;68;48.792;9.164;2023-09-07T06:10:13;16.70;93.60
152;DHT22;68;48.792;9.164;2023-09-07T06:12:39;16.80;93.40
152;DHT22;68;48.792;9.164;2023-09-07T06:15:08;17.00;93.90
152;DHT22;68;48.792;9.164;2023-09-07T06:17:36;17.30;93.80
152;DHT22;68;48.792;9.164;2023-09-07T06:20:03;17.40;93.90
152;DHT22;68;48.792;9.164;2023-09-07T06:22:31;17.50;93.70
152;DHT22;68;48.792;9.164;2023-09-07T06:24:58;17.00;93.50
152;DHT22;68;48.792;9.164;2023-09-07T06:27:25;16.60;91.60
152;DHT22;68;48.792;9.164;2023-09-07T06:29:51;16.40;89.20
152;DHT22;68;48.792;9.164;2023-09-07T06:32:20;16.30;88.50
152;DHT22;68;48.792;9.164;2023-09-07T06:34:46;16.40;88.70
152;DHT22;68;48.792;9.164;2023-09-07T06:37:13;16.40;87.40
152;DHT22;68;48.792;9.164;2023-09-07T06:39:40;16.30;86.00
152;DHT22;68;48.792;9.164;2023-09-07T06:42:09;16.30;85.30
152;DHT22;68;48.792;9.164;2023-09-07T06:44:36;16.40;85.20
152;DHT22;68;48.792;9.164;2023-09-07T06:47:03;16.40;84.80
152;DHT22;68;48.792;9.164;2023-09-07T06:49:31;16.50;86.10
152;DHT22;68;48.792;9.164;2023-09-07T06:51:58;16.80;87.50
152;DHT22;68;48.792;9.164;2023-09-07T06:54:24;16.90;90.40
152;DHT22;68;48.792;9.164;2023-09-07T06:56:52;17.20;92.20
152;DHT22;68;48.792;9.164;2023-09-07T06:59:19;17.10;91.70
152;DHT22;68;48.792;9.164;2023-09-07T07:01:45;17.30;92.20
152;DHT22;68;48.792;9.164;2023-09-07T07:04:12;17.50;92.70
152;DHT22;68;48.792;9.164;2023-09-07T07:06:40;17.70;93.60
152;DHT22;68;48.792;9.164;2023-09-07T07:09:07;17.70;93.20
152;DHT22;68;48.792;9.164;2023-09-07T07:11:34;17.90;93.50
152;DHT22;68;48.792;9.164;2023-09-07T07:14:01;18.00;93.60
152;DHT22;68;48.792;9.164;2023-09-07T07:16:28;18.00;93.60
152;DHT22;68;48.792;9.164;2023-09-07T07:18:54;18.00;93.60
152;DHT22;68;48.792;9.164;2023-09-07T07:21:21;18.10;93.50
152;DHT22;68;48.792;9.164;2023-09-07T07:23:49;18.20;93.80
152;DHT22;68;48.792;9.164;2023-09-07T07:26:16;18.40;93.50
152;DHT22;68;48.792;9.164;2023-09-07T07:28:44;18.60;92.40
152;DHT22;68;48.792;9.164;2023-09-07T07:31:10;18.80;91.60
152;DHT22;68;48.792;9.164;2023-09-07T07:33:37;19.00;90.90
152;DHT22;68;48.792;9.164;2023-09-07T07:36:04;19.10;90.60
152;DHT22;68;48.792;9.164;2023-09-07T07:38:31;19.00;91.20
152;DHT22;68;48.792;9.164;2023-09-07T07:40:59;18.90;91.40
152;DHT22;68;48.792;9.164;2023-09-07T07:43:26;19.20;90.80
152;DHT22;68;48.792;9.164;2023-09-07T07:45:54;19.20;90.20
152;DHT22;68;48.792;9.164;2023-09-07T07:48:20;19.00;90.80
152;DHT22;68;48.792;9.164;2023-09-07T07:50:47;19.10;91.10
152;DHT22;68;48.792;9.164;2023-09-07T07:53:14;19.10;91.20
152;DHT22;68;48.792;9.164;2023-09-07T07:55:41;19.30;91.20
152;DHT22;68;48.792;9.164;2023-09-07T07:58:10;19.60;88.40
152;DHT22;68;48.792;9.164;2023-09-07T08:00:37;19.80;88.60
152;DHT22;68;48.792;9.164;2023-09-07T08:03:04;19.90;87.60
152;DHT22;68;48.792;9.164;2023-09-07T08:05:33;20.10;86.60
152;DHT22;68;48.792;9.164;2023-09-07T08:08:00;20.30;86.90
152;DHT22;68;48.792;9.164;2023-09-07T08:10:28;20.60;86.40
152;DHT22;68;48.792;9.164;2023-09-07T08:12:55;20.70;85.70
152;DHT22;68;48.792;9.164;2023-09-07T08:15:24;20.70;85.40
152;DHT22;68;48.792;9.164;2023-09-07T08:17:51;20.70;84.00
152;DHT22;68;48.792;9.164;2023-09-07T08:20:18;20.60;85.30
152;DHT22;68;48.792;9.164;2023-09-07T08:22:45;20.70;85.80
152;DHT22;68;48.792;9.164;2023-09-07T08:25:12;20.80;84.00
152;DHT22;68;48.792;9.164;2023-09-07T08:27:39;20.90;84.50
152;DHT22;68;48.792;9.164;2023-09-07T08:30:11;21.00;83.90
152;DHT22;68;48.792;9.164;2023-09-07T08:32:40;21.10;84.10
152;DHT22;68;48.792;9.164;2023-09-07T08:35:09;21.30;82.70
152;DHT22;68;48.792;9.164;2023-09-07T08:37:38;21.30;81.80
152;DHT22;68;48.792;9.164;2023-09-07T08:40:06;21.20;83.30
152;DHT22;68;48.792;9.164;2023-09-07T08:42:35;21.30;82.50
152;DHT22;68;48.792;9.164;2023-09-07T08:45:03;21.50;81.70
152;DHT22;68;48.792;9.164;2023-09-07T08:47:32;21.60;81.30
152;DHT22;68;48.792;9.164;2023-09-07T08:50:01;21.80;80.60
152;DHT22;68;48.792;9.164;2023-09-07T08:52:28;21.80;80.60
152;DHT22;68;48.792;9.164;2023-09-07T08:54:56;21.90;80.30
152;DHT22;68;48.792;9.164;2023-09-07T08:57:26;21.80;80.00
152;DHT22;68;48.792;9.164;2023-09-07T08:59:53;21.90;81.10
152;DHT22;68;48.792;9.164;2023-09-07T09:02:20;21.90;80.20
152;DHT22;68;48.792;9.164;2023-09-07T09:04:47;21.90;80.30
152;DHT22;68;48.792;9.164;2023-09-07T09:07:15;21.90;80.40
152;DHT22;68;48.792;9.164;2023-09-07T09:09:42;22.00;81.60
152;DHT22;68;48.792;9.164;2023-09-07T09:12:10;22.30;80.50
152;DHT22;68;48.792;9.164;2023-09-07T09:14:38;22.50;79.60
152;DHT22;68;48.792;9.164;2023-09-07T09:17:05;22.80;79.00
152;DHT22;68;48.792;9.164;2023-09-07T09:19:32;22.80;78.00
152;DHT22;68;48.792;9.164;2023-09-07T09:22:00;22.70;79.00
152;DHT22;68;48.792;9.164;2023-09-07T09:24:32;22.20;79.30
152;DHT22;68;48.792;9.164;2023-09-07T09:27:00;22.20;79.40
152;DHT22;68;48.792;9.164;2023-09-07T09:29:27;22.40;80.60
152;DHT22;68;48.792;9.164;2023-09-07T09:31:54;22.70;79.30
152;DHT22;68;48.792;9.164;2023-09-07T09:34:21;23.00;78.90
152;DHT22;68;48.792;9.164;2023-09-07T09:36:47;23.10;78.80
152;DHT22;68;48.792;9.164;2023-09-07T09:39:22;23.10;77.70
152;DHT22;68;48.792;9.164;2023-09-07T09:41:52;23.20;78.60
152;DHT22;68;48.792;9.164;2023-09-07T09:44:21;23.40;78.70
152;DHT22;68;48.792;9.164;2023-09-07T09:46:51;23.50;77.40
152;DHT22;68;48.792;9.164;2023-09-07T09:49:20;23.60;77.50
152;DHT22;68;48.792;9.164;2023-09-07T09:51:48;23.40;76.20
152;DHT22;68;48.792;9.164;2023-09-07T09:54:16;23.40;78.10
152;DHT22;68;48.792;9.164;2023-09-07T09:56:44;23.60;78.10
152;DHT22;68;48.792;9.164;2023-09-07T09:59:13;23.70;77.70
152;DHT22;68;48.792;9.164;2023-09-07T10:01:43;23.40;76.90
152;DHT22;68;48.792;9.164;2023-09-07T10:04:12;23.30;78.50
152;DHT22;68;48.792;9.164;2023-09-07T10:06:50;23.30;79.00
152;DHT22;68;48.792;9.164;2023-09-07T10:09:17;23.30;78.80
152;DHT22;68;48.792;9.164;2023-09-07T10:11:51;23.30;78.90
152;DHT22;68;48.792;9.164;2023-09-07T10:14:19;23.60;78.30
152;DHT22;68;48.792;9.164;2023-09-07T10:16:47;23.80;76.60
152;DHT22;68;48.792;9.164;2023-09-07T10:19:16;23.70;76.60
152;DHT22;68;48.792;9.164;2023-09-07T10:21:43;23.90;76.00
152;DHT22;68;48.792;9.164;2023-09-07T10:24:10;24.00;76.30
152;DHT22;68;48.792;9.164;2023-09-07T10:26:37;24.00;76.30
152;DHT22;68;48.792;9.164;2023-09-07T10:29:04;24.10;77.70
152;DHT22;68;48.792;9.164;2023-09-07T10:31:32;24.20;76.30
152;DHT22;68;48.792;9.164;2023-09-07T10:34:08;24.30;77.50
152;DHT22;68;48.792;9.164;2023-09-07T10:36:36;24.30;76.40
152;DHT22;68;48.792;9.164;2023-09-07T10:39:03;24.50;74.90
152;DHT22;68;48.792;9.164;2023-09-07T10:41:39;24.80;75.60
152;DHT22;68;48.792;9.164;2023-09-07T10:44:07;24.90;74.70
152;DHT22;68;48.792;9.164;2023-09-07T10:46:37;24.60;74.70
152;DHT22;68;48.792;9.164;2023-09-07T10:49:07;24.40;75.90
152;DHT22;68;48.792;9.164;2023-09-07T10:51:41;24.30;75.50
152;DHT22;68;48.792;9.164;2023-09-07T10:54:15;24.40;76.80
152;DHT22;68;48.792;9.164;2023-09-07T10:56:44;24.50;75.50
152;DHT22;68;48.792;9.164;2023-09-07T10:59:11;24.60;75.50
152;DHT22;68;48.792;9.164;2023-09-07T11:01:39;24.60;75.20
152;DHT22;68;48.792;9.164;2023-09-07T11:04:06;24.50;75.10
152;DHT22;68;48.792;9.164;2023-09-07T11:06:34;24.50;74.90
152;DHT22;68;48.792;9.164;2023-09-07T11:09:02;24.60;74.90
152;DHT22;68;48.792;9.164;2023-09-07T11:11:31;25.20;73.80
152;DHT22;68;48.792;9.164;2023-09-07T11:13:59;25.60;73.50
152;DHT22;68;48.792;9.164;2023-09-07T11:16:26;25.90;71.60
152;DHT22;68;48.792;9.164;2023-09-07T11:18:54;26.00;72.10
152;DHT22;68;48.792;9.164;2023-09-07T11:21:22;26.40;71.50
152;DHT22;68;48.792;9.164;2023-09-07T11:23:50;26.40;72.00
152;DHT22;68;48.792;9.164;2023-09-07T11:26:17;26.90;71.50
152;DHT22;68;48.792;9.164;2023-09-07T11:28:46;27.40;69.20
152;DHT22;68;48.792;9.164;2023-09-07T11:31:13;27.50;68.20
152;DHT22;68;48.792;9.164;2023-09-07T11:33:41;26.80;69.30
152;DHT22;68;48.792;9.164;2023-09-07T11:36:09;27.20;69.90
152;DHT22;68;48.792;9.164;2023-09-07T11:38:37;27.80;68.30
152;DHT22;68;48.792;9.164;2023-09-07T11:41:04;28.10;67.10
152;DHT22;68;48.792;9.164;2023-09-07T11:43:31;28.70;64.70
152;DHT22;68;48.792;9.164;2023-09-07T11:45:59;29.10;64.80
152;DHT22;68;48.792;9.164;2023-09-07T11:48:26;28.70;64.00
152;DHT22;68;48.792;9.164;2023-09-07T11:50:54;28.90;64.10
152;DHT22;68;48.792;9.164;2023-09-07T11:53:22;29.50;63.10
152;DHT22;68;48.792;9.164;2023-09-07T11:55:48;28.50;64.50
152;DHT22;68;48.792;9.164;2023-09-07T11:58:15;27.50;66.00
152;DHT22;68;48.792;9.164;2023-09-07T12:00:42;27.50;66.80
152;DHT22;68;48.792;9.164;2023-09-07T12:03:09;27.80;66.80
152;DHT22;68;48.792;9.164;2023-09-07T12:05:36;27.90;67.80
152;DHT22;68;48.792;9.164;2023-09-07T12:08:04;28.10;66.40
152;DHT22;68;48.792;9.164;2023-09-07T12:10:33;28.40;66.50
152;DHT22;68;48.792;9.164;2023-09-07T12:12:59;28.90;64.20
152;DHT22;68;48.792;9.164;2023-09-07T12:15:26;29.60;62.30
152;DHT22;68;48.792;9.164;2023-09-07T12:17:53;29.00;63.20
152;DHT22;68;48.792;9.164;2023-09-07T12:20:21;28.50;64.10
152;DHT22;68;48.792;9.164;2023-09-07T12:22:48;27.40;66.30
152;DHT22;68;48.792;9.164;2023-09-07T12:25:15;26.90;69.80
152;DHT22;68;48.792;9.164;2023-09-07T12:27:43;27.10;68.20
152;DHT22;68;48.792;9.164;2023-09-07T12:30:15;27.30;67.20
152;DHT22;68;48.792;9.164;2023-09-07T12:32:44;28.00;66.00
152;DHT22;68;48.792;9.164;2023-09-07T12:35:10;28.40;65.30
152;DHT22;68;48.792;9.164;2023-09-07T12:37:38;27.90;65.60
152;DHT22;68;48.792;9.164;2023-09-07T12:40:06;27.90;65.80
152;DHT22;68;48.792;9.164;2023-09-07T12:42:38;27.80;65.30
152;DHT22;68;48.792;9.164;2023-09-07T12:45:07;27.70;64.40
152;DHT22;68;48.792;9.164;2023-09-07T12:47:34;27.80;66.60
152;DHT22;68;48.792;9.164;2023-09-07T12:50:02;28.20;64.00
152;DHT22;68;48.792;9.164;2023-09-07T12:52:30;28.40;64.00
152;DHT22;68;48.792;9.164;2023-09-07T12:54:57;28.00;63.30
152;DHT22;68;48.792;9.164;2023-09-07T12:57:23;28.10;63.50
152;DHT22;68;48.792;9.164;2023-09-07T12:59:50;28.00;64.30
152;DHT22;68;48.792;9.164;2023-09-07T13:02:18;27.70;63.80
152;DHT22;68;48.792;9.164;2023-09-07T13:04:45;28.10;63.90
152;DHT22;68;48.792;9.164;2023-09-07T13:07:12;28.10;64.00
152;DHT22;68;48.792;9.164;2023-09-07T13:09:42;27.90;63.90
152;DHT22;68;48.792;9.164;2023-09-07T13:12:09;28.00;65.90
152;DHT22;68;48.792;9.164;2023-09-07T13:14:36;27.50;64.50
152;DHT22;68;48.792;9.164;2023-09-07T13:17:03;27.70;64.80
152;DHT22;68;48.792;9.164;2023-09-07T13:19:31;27.80;65.20
152;DHT22;68;48.792;9.164;2023-09-07T13:21:58;27.80;65.30
152;DHT22;68;48.792;9.164;2023-09-07T13:24:25;28.10;64.70
152;DHT22;68;48.792;9.164;2023-09-07T13:26:52;28.20;64.10
152;DHT22;68;48.792;9.164;2023-09-07T13:29:19;28.60;64.30
152;DHT22;68;48.792;9.164;2023-09-07T13:31:46;28.60;64.00
152;DHT22;68;48.792;9.164;2023-09-07T13:34:12;28.60;62.70
152;DHT22;68;48.792;9.164;2023-09-07T13:36:41;28.40;63.10
152;DHT22;68;48.792;9.164;2023-09-07T13:39:08;28.60;62.60
152;DHT22;68;48.792;9.164;2023-09-07T13:41:35;28.50;62.90
152;DHT22;68;48.792;9.164;2023-09-07T13:44:01;28.60;63.30
152;DHT22;68;48.792;9.164;2023-09-07T13:46:28;28.20;63.00
152;DHT22;68;48.792;9.164;2023-09-07T13:48:55;28.10;64.50
152;DHT22;68;48.792;9.164;2023-09-07T13:51:22;28.30;64.20
152;DHT22;68;48.792;9.164;2023-09-07T13:53:51;28.60;61.30
152;DHT22;68;48.792;9.164;2023-09-07T13:56:18;28.40;62.40
152;DHT22;68;48.792;9.164;2023-09-07T13:58:45;28.30;62.00
152;DHT22;68;48.792;9.164;2023-09-07T14:01:12;28.20;61.60
152;DHT22;68;48.792;9.164;2023-09-07T14:03:38;28.30;62.40
152;DHT22;68;48.792;9.164;2023-09-07T14:06:05;28.70;60.80
152;DHT22;68;48.792;9.164;2023-09-07T14:08:32;28.80;62.10
152;DHT22;68;48.792;9.164;2023-09-07T14:11:01;28.70;63.10
152;DHT22;68;48.792;9.164;2023-09-07T14:13:28;28.50;62.10
152;DHT22;68;48.792;9.164;2023-09-07T14:15:55;28.10;61.50
152;DHT22;68;48.792;9.164;2023-09-07T14:18:22;28.20;62.80
152;DHT22;68;48.792;9.164;2023-09-07T14:20:49;28.00;63.40
152;DHT22;68;48.792;9.164;2023-09-07T14:23:16;28.10;62.90
152;DHT22;68;48.792;9.164;2023-09-07T14:25:43;28.00;63.00
152;DHT22;68;48.792;9.164;2023-09-07T14:28:12;28.00;63.30
152;DHT22;68;48.792;9.164;2023-09-07T14:30:38;28.20;61.20
152;DHT22;68;48.792;9.164;2023-09-07T14:33:05;28.10;61.50
152;DHT22;68;48.792;9.164;2023-09-07T14:35:32;28.10;62.30
152;DHT22;68;48.792;9.164;2023-09-07T14:37:59;28.00;62.20
152;DHT22;68;48.792;9.164;2023-09-07T14:40:26;28.00;63.40
152;DHT22;68;48.792;9.164;2023-09-07T14:42:53;27.90;63.40
152;DHT22;68;48.792;9.164;2023-09-07T14:45:24;28.00;63.50
152;DHT22;68;48.792;9.164;2023-09-07T14:47:51;28.10;64.00
152;DHT22;68;48.792;9.164;2023-09-07T14:50:18;28.20;62.90
152;DHT22;68;48.792;9.164;2023-09-07T14:52:45;28.20;63.30
152;DHT22;68;48.792;9.164;2023-09-07T14:55:12;28.40;61.80
152;DHT22;68;48.792;9.164;2023-09-07T14:57:39;28.20;62.30
152;DHT22;68;48.792;9.164;2023-09-07T15:00:08;28.10;63.00
152;DHT22;68;48.792;9.164;2023-09-07T15:02:37;28.20;62.50
152;DHT22;68;48.792;9.164;2023-09-07T15:05:04;28.00;61.70
152;DHT22;68;48.792;9.164;2023-09-07T15:07:31;27.90;63.10
152;DHT22;68;48.792;9.164;2023-09-07T15:09:58;28.00;63.50
152;DHT22;68;48.792;9.164;2023-09-07T15:12:25;28.20;63.30
152;DHT22;68;48.792;9.164;2023-09-07T15:14:52;28.20;63.40
152;DHT22;68;48.792;9.164;2023-09-07T15:17:18;28.10;62.80
152;DHT22;68;48.792;9.164;2023-09-07T15:19:47;28.10;61.80
152;DHT22;68;48.792;9.164;2023-09-07T15:22:14;28.10;62.20
152;DHT22;68;48.792;9.164;2023-09-07T15:24:41;27.90;63.00
152;DHT22;68;48.792;9.164;2023-09-07T15:27:08;28.00;63.50
152;DHT22;68;48.792;9.164;2023-09-07T15:29:35;28.10;63.00
152;DHT22;68;48.792;9.164;2023-09-07T15:32:03;28.10;63.20
152;DHT22;68;48.792;9.164;2023-09-07T15:34:30;28.00;63.50
152;DHT22;68;48.792;9.164;2023-09-07T15:36:58;28.00;65.10
152;DHT22;68;48.792;9.164;2023-09-07T15:39:25;27.80;64.10
152;DHT22;68;48.792;9.164;2023-09-07T15:41:52;27.80;64.10
152;DHT22;68;48.792;9.164;2023-09-07T15:44:20;27.80;64.30
152;DHT22;68;48.792;9.164;2023-09-07T15:46:48;27.90;64.00
152;DHT22;68;48.792;9.164;2023-09-07T15:49:16;27.90;64.20
152;DHT22;68;48.792;9.164;2023-09-07T15:51:44;27.90;64.00
152;DHT22;68;48.792;9.164;2023-09-07T15:54:12;27.80;63.40
152;DHT22;68;48.792;9.164;2023-09-07T15:56:40;27.80;63.40
152;DHT22;68;48.792;9.164;2023-09-07T15:59:07;27.70;63.00
152;DHT22;68;48.792;9.164;2023-09-07T16:01:34;27.80;63.60
152;DHT22;68;48.792;9.164;2023-09-07T16:04:01;27.80;63.20
152;DHT22;68;48.792;9.164;2023-09-07T16:06:28;27.70;63.20
152;DHT22;68;48.792;9.164;2023-09-07T16:08:55;27.70;63.80
152;DHT22;68;48.792;9.164;2023-09-07T16:11:23;27.70;62.90
152;DHT22;68;48.792;9.164;2023-09-07T16:13:50;27.70;63.20
152;DHT22;68;48.792;9.164;2023-09-07T16:16:17;27.50;63.00
152;DHT22;68;48.792;9.164;2023-09-07T16:18:44;27.50;63.10
152;DHT22;68;48.792;9.164;2023-09-07T16:21:11;27.60;63.30
152;DHT22;68;48.792;9.164;2023-09-07T16:23:42;27.70;63.90
152;DHT22;68;48.792;9.164;2023-09-07T16:26:08;27.60;63.20
152;DHT22;68;48.792;9.164;2023-09-07T16:28:36;27.60;63.80
152;DHT22;68;48.792;9.164;2023-09-07T16:31:03;27.50;63.60
152;DHT22;68;48.792;9.164;2023-09-07T16:33:30;27.60;63.50
152;DHT22;68;48.792;9.164;2023-09-07T16:35:57;27.50;62.50
152;DHT22;68;48.792;9.164;2023-09-07T16:38:25;27.40;62.50
152;DHT22;68;48.792;9.164;2023-09-07T16:40:52;27.60;61.90
152;DHT22;68;48.792;9.164;2023-09-07T16:43:19;27.60;62.20
152;DHT22;68;48.792;9.164;2023-09-07T16:45:56;27.60;62.40
152;DHT22;68;48.792;9.164;2023-09-07T16:48:23;27.40;62.00
152;DHT22;68;48.792;9.164;2023-09-07T16:50:49;27.40;62.70
152;DHT22;68;48.792;9.164;2023-09-07T16:53:16;27.20;61.40